Worcester, Massachusetts
Current Conditions -  °F | °C
As of 9:54 AM on Friday 28 Nov 2014 (Local Time) from KORH Reporting Station
Few Clouds Few Clouds  
Wind Chill: 16°   Ceiling: Unl
Heat Index: 27°   Visibility: 10mi
Dew Point: 21°   Wind: 14mph
Humidity: 78%   Direction: 310°NW
Pressure: 30.03"   Gusts: 22mph
Location:  42.26°N, 71.8°W
Report Text: KORH 281454Z 31012G19KT 10SM FEW021 M03/M06 A3003 RMK AO2 SLP185 T10281061 51014
Loading
Personal Weather Stations






























Interactive Weather Map New forecast layout! Learn more

10-Day Weather Forecast

Advertisements
Track Severe Weather on mobile